sensor_id;sensor_type;location;lat;lon;timestamp;P1;durP1;ratioP1;P2;durP2;ratioP2
75062;SDS011;63981;51.052;13.754;2023-04-03T00:01:13;3.38;;;1.00;;
75062;SDS011;63981;51.052;13.754;2023-04-03T00:03:39;3.15;;;0.82;;
75062;SDS011;63981;51.052;13.754;2023-04-03T00:06:07;2.42;;;0.77;;
75062;SDS011;63981;51.052;13.754;2023-04-03T00:08:35;3.22;;;0.70;;
75062;SDS011;63981;51.052;13.754;2023-04-03T00:11:01;3.95;;;1.05;;
75062;SDS011;63981;51.052;13.754;2023-04-03T00:13:27;2.75;;;0.63;;
75062;SDS011;63981;51.052;13.754;2023-04-03T00:15:53;2.70;;;0.85;;
75062;SDS011;63981;51.052;13.754;2023-04-03T00:18:19;3.63;;;1.05;;
75062;SDS011;63981;51.052;13.754;2023-04-03T00:20:45;3.10;;;0.60;;
75062;SDS011;63981;51.052;13.754;2023-04-03T00:23:11;2.50;;;0.90;;
75062;SDS011;63981;51.052;13.754;2023-04-03T00:25:36;2.53;;;0.80;;
75062;SDS011;63981;51.052;13.754;2023-04-03T00:28:03;4.22;;;1.10;;
75062;SDS011;63981;51.052;13.754;2023-04-03T00:30:29;3.00;;;0.82;;
75062;SDS011;63981;51.052;13.754;2023-04-03T00:32:56;4.65;;;1.25;;
75062;SDS011;63981;51.052;13.754;2023-04-03T00:35:22;2.15;;;0.70;;
75062;SDS011;63981;51.052;13.754;2023-04-03T00:37:53;3.10;;;0.70;;
75062;SDS011;63981;51.052;13.754;2023-04-03T00:40:22;4.05;;;1.27;;
75062;SDS011;63981;51.052;13.754;2023-04-03T00:42:51;2.63;;;0.93;;
75062;SDS011;63981;51.052;13.754;2023-04-03T00:45:34;3.25;;;1.10;;
75062;SDS011;63981;51.052;13.754;2023-04-03T00:48:03;3.78;;;1.10;;
75062;SDS011;63981;51.052;13.754;2023-04-03T00:50:32;4.90;;;0.98;;
75062;SDS011;63981;51.052;13.754;2023-04-03T00:53:03;2.47;;;0.70;;
75062;SDS011;63981;51.052;13.754;2023-04-03T00:55:30;3.55;;;0.90;;
75062;SDS011;63981;51.052;13.754;2023-04-03T00:57:57;4.45;;;1.23;;
75062;SDS011;63981;51.052;13.754;2023-04-03T01:00:23;2.85;;;0.93;;
75062;SDS011;63981;51.052;13.754;2023-04-03T01:02:50;2.20;;;0.82;;
75062;SDS011;63981;51.052;13.754;2023-04-03T01:05:17;2.78;;;0.82;;
75062;SDS011;63981;51.052;13.754;2023-04-03T01:07:45;5.20;;;0.93;;
75062;SDS011;63981;51.052;13.754;2023-04-03T01:10:14;1.75;;;0.68;;
75062;SDS011;63981;51.052;13.754;2023-04-03T01:12:43;5.28;;;1.27;;
75062;SDS011;63981;51.052;13.754;2023-04-03T01:15:29;2.83;;;0.95;;
75062;SDS011;63981;51.052;13.754;2023-04-03T01:18:00;5.50;;;1.10;;
75062;SDS011;63981;51.052;13.754;2023-04-03T01:25:37;3.72;;;1.15;;
75062;SDS011;63981;51.052;13.754;2023-04-03T01:28:07;1.42;;;0.70;;
75062;SDS011;63981;51.052;13.754;2023-04-03T01:30:36;3.05;;;1.20;;
75062;SDS011;63981;51.052;13.754;2023-04-03T01:33:10;6.47;;;0.93;;
75062;SDS011;63981;51.052;13.754;2023-04-03T01:35:37;2.95;;;1.10;;
75062;SDS011;63981;51.052;13.754;2023-04-03T01:38:03;4.03;;;1.00;;
75062;SDS011;63981;51.052;13.754;2023-04-03T01:40:29;2.80;;;1.10;;
75062;SDS011;63981;51.052;13.754;2023-04-03T01:42:55;1.67;;;0.70;;
75062;SDS011;63981;51.052;13.754;2023-04-03T01:45:21;2.50;;;0.95;;
75062;SDS011;63981;51.052;13.754;2023-04-03T01:47:46;2.67;;;0.90;;
75062;SDS011;63981;51.052;13.754;2023-04-03T01:50:12;2.55;;;0.95;;
75062;SDS011;63981;51.052;13.754;2023-04-03T01:52:38;5.70;;;1.02;;
75062;SDS011;63981;51.052;13.754;2023-04-03T01:55:04;2.55;;;1.08;;
75062;SDS011;63981;51.052;13.754;2023-04-03T01:57:30;4.10;;;1.02;;
75062;SDS011;63981;51.052;13.754;2023-04-03T01:59:56;2.58;;;1.10;;
75062;SDS011;63981;51.052;13.754;2023-04-03T02:02:22;3.25;;;1.23;;
75062;SDS011;63981;51.052;13.754;2023-04-03T02:04:48;5.40;;;1.10;;
75062;SDS011;63981;51.052;13.754;2023-04-03T02:07:13;2.03;;;0.95;;
75062;SDS011;63981;51.052;13.754;2023-04-03T02:09:39;3.55;;;0.93;;
75062;SDS011;63981;51.052;13.754;2023-04-03T02:12:05;2.95;;;0.90;;
75062;SDS011;63981;51.052;13.754;2023-04-03T02:14:32;3.50;;;0.88;;
75062;SDS011;63981;51.052;13.754;2023-04-03T02:17:00;1.77;;;1.20;;
75062;SDS011;63981;51.052;13.754;2023-04-03T02:19:26;3.60;;;0.90;;
75062;SDS011;63981;51.052;13.754;2023-04-03T02:21:52;2.50;;;0.93;;
75062;SDS011;63981;51.052;13.754;2023-04-03T02:24:17;2.22;;;1.00;;
75062;SDS011;63981;51.052;13.754;2023-04-03T02:26:43;2.17;;;0.68;;
75062;SDS011;63981;51.052;13.754;2023-04-03T02:29:09;3.70;;;1.05;;
75062;SDS011;63981;51.052;13.754;2023-04-03T02:31:35;2.42;;;0.95;;
75062;SDS011;63981;51.052;13.754;2023-04-03T02:34:01;4.43;;;1.67;;
75062;SDS011;63981;51.052;13.754;2023-04-03T02:36:27;3.88;;;1.10;;
75062;SDS011;63981;51.052;13.754;2023-04-03T02:38:57;3.80;;;0.80;;
75062;SDS011;63981;51.052;13.754;2023-04-03T02:41:23;4.88;;;1.00;;
75062;SDS011;63981;51.052;13.754;2023-04-03T02:43:51;4.03;;;0.85;;
75062;SDS011;63981;51.052;13.754;2023-04-03T02:46:17;3.28;;;1.08;;
75062;SDS011;63981;51.052;13.754;2023-04-03T02:48:42;1.38;;;0.80;;
75062;SDS011;63981;51.052;13.754;2023-04-03T02:51:09;2.05;;;0.73;;
75062;SDS011;63981;51.052;13.754;2023-04-03T02:53:35;3.03;;;1.10;;
75062;SDS011;63981;51.052;13.754;2023-04-03T02:56:07;2.88;;;0.80;;
75062;SDS011;63981;51.052;13.754;2023-04-03T02:58:33;3.78;;;1.00;;
75062;SDS011;63981;51.052;13.754;2023-04-03T03:00:59;3.53;;;1.15;;
75062;SDS011;63981;51.052;13.754;2023-04-03T03:03:25;1.52;;;0.80;;
75062;SDS011;63981;51.052;13.754;2023-04-03T03:06:00;2.65;;;0.90;;
75062;SDS011;63981;51.052;13.754;2023-04-03T03:08:34;2.55;;;0.88;;
75062;SDS011;63981;51.052;13.754;2023-04-03T03:11:00;3.15;;;0.80;;
75062;SDS011;63981;51.052;13.754;2023-04-03T03:13:27;4.57;;;0.95;;
75062;SDS011;63981;51.052;13.754;2023-04-03T03:15:52;3.78;;;1.15;;
75062;SDS011;63981;51.052;13.754;2023-04-03T03:18:18;2.45;;;0.90;;
75062;SDS011;63981;51.052;13.754;2023-04-03T03:20:44;6.50;;;1.20;;
75062;SDS011;63981;51.052;13.754;2023-04-03T03:23:10;3.28;;;0.70;;
75062;SDS011;63981;51.052;13.754;2023-04-03T03:25:39;1.92;;;0.88;;
75062;SDS011;63981;51.052;13.754;2023-04-03T03:28:06;4.70;;;1.10;;
75062;SDS011;63981;51.052;13.754;2023-04-03T03:30:32;3.75;;;0.95;;
75062;SDS011;63981;51.052;13.754;2023-04-03T03:32:59;3.13;;;0.82;;
75062;SDS011;63981;51.052;13.754;2023-04-03T03:35:24;3.30;;;1.10;;
75062;SDS011;63981;51.052;13.754;2023-04-03T03:37:50;2.65;;;0.93;;
75062;SDS011;63981;51.052;13.754;2023-04-03T03:40:16;2.05;;;1.00;;
75062;SDS011;63981;51.052;13.754;2023-04-03T03:42:43;1.88;;;0.82;;
75062;SDS011;63981;51.052;13.754;2023-04-03T03:45:08;1.95;;;0.50;;
75062;SDS011;63981;51.052;13.754;2023-04-03T03:47:35;3.00;;;0.82;;
75062;SDS011;63981;51.052;13.754;2023-04-03T03:50:01;3.10;;;0.90;;
75062;SDS011;63981;51.052;13.754;2023-04-03T03:52:28;3.25;;;0.70;;
75062;SDS011;63981;51.052;13.754;2023-04-03T03:54:55;3.42;;;1.02;;
75062;SDS011;63981;51.052;13.754;2023-04-03T03:57:21;3.55;;;0.95;;
75062;SDS011;63981;51.052;13.754;2023-04-03T03:59:47;1.63;;;0.88;;
75062;SDS011;63981;51.052;13.754;2023-04-03T04:02:16;4.07;;;1.02;;
75062;SDS011;63981;51.052;13.754;2023-04-03T04:04:42;3.70;;;0.98;;
75062;SDS011;63981;51.052;13.754;2023-04-03T04:07:09;1.92;;;0.63;;
75062;SDS011;63981;51.052;13.754;2023-04-03T04:09:35;3.83;;;1.00;;
75062;SDS011;63981;51.052;13.754;2023-04-03T04:12:01;1.55;;;0.88;;
75062;SDS011;63981;51.052;13.754;2023-04-03T04:14:27;3.67;;;1.00;;
75062;SDS011;63981;51.052;13.754;2023-04-03T04:16:53;2.72;;;0.82;;
75062;SDS011;63981;51.052;13.754;2023-04-03T04:19:23;2.78;;;0.88;;
75062;SDS011;63981;51.052;13.754;2023-04-03T04:21:49;2.95;;;0.80;;
75062;SDS011;63981;51.052;13.754;2023-04-03T04:24:15;3.38;;;1.00;;
75062;SDS011;63981;51.052;13.754;2023-04-03T04:26:41;3.35;;;1.23;;
75062;SDS011;63981;51.052;13.754;2023-04-03T04:29:10;2.90;;;1.10;;
75062;SDS011;63981;51.052;13.754;2023-04-03T04:31:35;3.50;;;1.20;;
75062;SDS011;63981;51.052;13.754;2023-04-03T04:34:02;4.30;;;1.25;;
75062;SDS011;63981;51.052;13.754;2023-04-03T04:36:28;1.60;;;0.90;;
75062;SDS011;63981;51.052;13.754;2023-04-03T04:38:54;2.38;;;0.80;;
75062;SDS011;63981;51.052;13.754;2023-04-03T04:41:22;2.30;;;1.52;;
75062;SDS011;63981;51.052;13.754;2023-04-03T04:43:51;5.40;;;1.45;;
75062;SDS011;63981;51.052;13.754;2023-04-03T04:46:17;3.70;;;1.15;;
75062;SDS011;63981;51.052;13.754;2023-04-03T04:48:49;2.65;;;0.93;;
75062;SDS011;63981;51.052;13.754;2023-04-03T04:51:17;2.63;;;1.25;;
75062;SDS011;63981;51.052;13.754;2023-04-03T04:53:43;2.63;;;1.10;;
75062;SDS011;63981;51.052;13.754;2023-04-03T04:56:11;3.03;;;1.63;;
75062;SDS011;63981;51.052;13.754;2023-04-03T04:58:38;3.95;;;1.92;;
75062;SDS011;63981;51.052;13.754;2023-04-03T05:01:05;3.78;;;0.98;;
75062;SDS011;63981;51.052;13.754;2023-04-03T05:03:37;4.65;;;1.38;;
75062;SDS011;63981;51.052;13.754;2023-04-03T05:06:04;3.95;;;1.95;;
75062;SDS011;63981;51.052;13.754;2023-04-03T05:08:31;6.35;;;1.63;;
75062;SDS011;63981;51.052;13.754;2023-04-03T05:10:58;3.30;;;1.42;;
75062;SDS011;63981;51.052;13.754;2023-04-03T05:13:25;5.30;;;1.60;;
75062;SDS011;63981;51.052;13.754;2023-04-03T05:15:52;4.82;;;1.75;;
75062;SDS011;63981;51.052;13.754;2023-04-03T05:18:18;6.53;;;1.65;;
75062;SDS011;63981;51.052;13.754;2023-04-03T05:20:44;5.57;;;1.58;;
75062;SDS011;63981;51.052;13.754;2023-04-03T05:23:10;3.80;;;1.27;;
75062;SDS011;63981;51.052;13.754;2023-04-03T05:25:39;3.72;;;1.60;;
75062;SDS011;63981;51.052;13.754;2023-04-03T05:28:06;5.55;;;1.70;;
75062;SDS011;63981;51.052;13.754;2023-04-03T05:30:33;5.53;;;2.13;;
75062;SDS011;63981;51.052;13.754;2023-04-03T05:33:02;5.60;;;1.60;;
75062;SDS011;63981;51.052;13.754;2023-04-03T05:35:43;5.22;;;1.95;;
75062;SDS011;63981;51.052;13.754;2023-04-03T05:38:13;4.18;;;1.45;;
75062;SDS011;63981;51.052;13.754;2023-04-03T05:40:40;3.78;;;1.55;;
75062;SDS011;63981;51.052;13.754;2023-04-03T05:43:06;4.75;;;1.70;;
75062;SDS011;63981;51.052;13.754;2023-04-03T05:45:35;5.25;;;1.50;;
75062;SDS011;63981;51.052;13.754;2023-04-03T05:48:01;4.13;;;1.80;;
75062;SDS011;63981;51.052;13.754;2023-04-03T05:50:28;5.05;;;1.88;;
75062;SDS011;63981;51.052;13.754;2023-04-03T05:52:55;4.32;;;1.40;;
75062;SDS011;63981;51.052;13.754;2023-04-03T05:55:25;3.70;;;1.33;;
75062;SDS011;63981;51.052;13.754;2023-04-03T05:57:51;4.57;;;1.83;;
75062;SDS011;63981;51.052;13.754;2023-04-03T06:00:17;3.83;;;1.50;;
75062;SDS011;63981;51.052;13.754;2023-04-03T06:02:52;5.07;;;1.35;;
75062;SDS011;63981;51.052;13.754;2023-04-03T06:05:21;4.95;;;1.83;;
75062;SDS011;63981;51.052;13.754;2023-04-03T06:07:47;3.58;;;1.38;;
75062;SDS011;63981;51.052;13.754;2023-04-03T06:10:14;4.40;;;1.70;;
75062;SDS011;63981;51.052;13.754;2023-04-03T06:12:40;4.85;;;1.73;;
75062;SDS011;63981;51.052;13.754;2023-04-03T06:15:07;4.28;;;1.65;;
75062;SDS011;63981;51.052;13.754;2023-04-03T06:17:35;4.90;;;1.17;;
75062;SDS011;63981;51.052;13.754;2023-04-03T06:20:03;2.72;;;1.40;;
75062;SDS011;63981;51.052;13.754;2023-04-03T06:22:29;5.20;;;1.65;;
75062;SDS011;63981;51.052;13.754;2023-04-03T06:24:56;4.10;;;1.35;;
75062;SDS011;63981;51.052;13.754;2023-04-03T06:27:23;3.72;;;1.33;;
75062;SDS011;63981;51.052;13.754;2023-04-03T06:29:48;4.18;;;1.55;;
75062;SDS011;63981;51.052;13.754;2023-04-03T06:32:15;3.47;;;1.40;;
75062;SDS011;63981;51.052;13.754;2023-04-03T06:34:42;2.83;;;1.17;;
75062;SDS011;63981;51.052;13.754;2023-04-03T06:37:17;4.90;;;1.52;;
75062;SDS011;63981;51.052;13.754;2023-04-03T06:39:45;3.22;;;1.40;;
75062;SDS011;63981;51.052;13.754;2023-04-03T06:42:11;5.97;;;1.50;;
75062;SDS011;63981;51.052;13.754;2023-04-03T06:44:45;2.83;;;1.50;;
75062;SDS011;63981;51.052;13.754;2023-04-03T06:47:15;2.83;;;1.13;;
75062;SDS011;63981;51.052;13.754;2023-04-03T06:49:42;4.65;;;1.25;;
75062;SDS011;63981;51.052;13.754;2023-04-03T06:52:08;5.32;;;1.30;;
75062;SDS011;63981;51.052;13.754;2023-04-03T06:54:35;5.13;;;1.50;;
75062;SDS011;63981;51.052;13.754;2023-04-03T06:57:01;5.63;;;1.85;;
75062;SDS011;63981;51.052;13.754;2023-04-03T06:59:27;4.55;;;1.40;;
75062;SDS011;63981;51.052;13.754;2023-04-03T07:01:53;2.47;;;1.10;;
75062;SDS011;63981;51.052;13.754;2023-04-03T07:04:19;4.38;;;1.20;;
75062;SDS011;63981;51.052;13.754;2023-04-03T07:06:46;2.53;;;1.35;;
75062;SDS011;63981;51.052;13.754;2023-04-03T07:09:12;3.08;;;1.40;;
75062;SDS011;63981;51.052;13.754;2023-04-03T07:11:40;4.45;;;1.40;;
75062;SDS011;63981;51.052;13.754;2023-04-03T07:14:06;5.47;;;1.55;;
75062;SDS011;63981;51.052;13.754;2023-04-03T07:16:33;3.40;;;1.23;;
75062;SDS011;63981;51.052;13.754;2023-04-03T07:19:00;2.35;;;1.10;;
75062;SDS011;63981;51.052;13.754;2023-04-03T07:21:27;4.97;;;1.52;;
75062;SDS011;63981;51.052;13.754;2023-04-03T07:23:53;4.38;;;1.45;;
75062;SDS011;63981;51.052;13.754;2023-04-03T07:26:19;4.05;;;1.60;;
75062;SDS011;63981;51.052;13.754;2023-04-03T07:28:46;5.60;;;1.50;;
75062;SDS011;63981;51.052;13.754;2023-04-03T07:31:14;5.13;;;1.60;;
75062;SDS011;63981;51.052;13.754;2023-04-03T07:33:40;2.55;;;1.10;;
75062;SDS011;63981;51.052;13.754;2023-04-03T07:36:07;5.97;;;1.45;;
75062;SDS011;63981;51.052;13.754;2023-04-03T07:38:34;4.22;;;1.20;;
75062;SDS011;63981;51.052;13.754;2023-04-03T07:41:01;4.22;;;1.40;;
75062;SDS011;63981;51.052;13.754;2023-04-03T07:43:27;2.50;;;1.17;;
75062;SDS011;63981;51.052;13.754;2023-04-03T07:45:53;4.88;;;1.40;;
75062;SDS011;63981;51.052;13.754;2023-04-03T07:48:20;5.00;;;1.35;;
75062;SDS011;63981;51.052;13.754;2023-04-03T07:50:47;5.53;;;1.60;;
75062;SDS011;63981;51.052;13.754;2023-04-03T07:53:14;2.90;;;1.23;;
75062;SDS011;63981;51.052;13.754;2023-04-03T07:55:40;4.45;;;1.30;;
75062;SDS011;63981;51.052;13.754;2023-04-03T07:58:09;2.90;;;1.60;;
75062;SDS011;63981;51.052;13.754;2023-04-03T08:00:36;2.75;;;1.17;;
75062;SDS011;63981;51.052;13.754;2023-04-03T08:03:02;2.90;;;1.30;;
75062;SDS011;63981;51.052;13.754;2023-04-03T08:05:27;4.03;;;1.05;;
75062;SDS011;63981;51.052;13.754;2023-04-03T08:07:53;5.70;;;1.10;;
75062;SDS011;63981;51.052;13.754;2023-04-03T08:10:19;2.88;;;1.02;;
75062;SDS011;63981;51.052;13.754;2023-04-03T08:12:45;4.72;;;1.08;;
75062;SDS011;63981;51.052;13.754;2023-04-03T08:15:12;3.17;;;1.08;;
75062;SDS011;63981;51.052;13.754;2023-04-03T08:17:38;4.28;;;1.00;;
75062;SDS011;63981;51.052;13.754;2023-04-03T08:20:05;3.40;;;1.40;;
75062;SDS011;63981;51.052;13.754;2023-04-03T08:22:32;5.93;;;1.45;;
75062;SDS011;63981;51.052;13.754;2023-04-03T08:24:58;1.88;;;1.00;;
75062;SDS011;63981;51.052;13.754;2023-04-03T08:27:25;1.70;;;1.05;;
75062;SDS011;63981;51.052;13.754;2023-04-03T08:29:51;1.98;;;1.00;;
75062;SDS011;63981;51.052;13.754;2023-04-03T08:32:17;3.67;;;1.17;;
75062;SDS011;63981;51.052;13.754;2023-04-03T08:34:43;3.80;;;1.45;;
75062;SDS011;63981;51.052;13.754;2023-04-03T08:37:09;2.70;;;1.30;;
75062;SDS011;63981;51.052;13.754;2023-04-03T08:39:35;4.78;;;1.40;;
75062;SDS011;63981;51.052;13.754;2023-04-03T08:42:02;2.70;;;1.30;;
75062;SDS011;63981;51.052;13.754;2023-04-03T08:47:23;5.25;;;1.35;;
75062;SDS011;63981;51.052;13.754;2023-04-03T08:50:00;5.85;;;1.35;;
75062;SDS011;63981;51.052;13.754;2023-04-03T08:52:36;6.63;;;1.38;;
75062;SDS011;63981;51.052;13.754;2023-04-03T08:58:01;3.10;;;1.15;;
75062;SDS011;63981;51.052;13.754;2023-04-03T09:00:30;4.43;;;1.10;;
75062;SDS011;63981;51.052;13.754;2023-04-03T09:03:03;2.10;;;1.08;;
75062;SDS011;63981;51.052;13.754;2023-04-03T09:05:32;2.80;;;1.05;;
75062;SDS011;63981;51.052;13.754;2023-04-03T09:16:13;3.75;;;0.90;;
75062;SDS011;63981;51.052;13.754;2023-04-03T09:21:48;4.50;;;0.90;;
75062;SDS011;63981;51.052;13.754;2023-04-03T09:24:15;2.05;;;0.70;;
75062;SDS011;63981;51.052;13.754;2023-04-03T09:29:18;2.40;;;0.98;;
75062;SDS011;63981;51.052;13.754;2023-04-03T09:31:48;2.97;;;0.90;;
75062;SDS011;63981;51.052;13.754;2023-04-03T09:34:28;4.57;;;1.00;;
75062;SDS011;63981;51.052;13.754;2023-04-03T09:36:58;4.32;;;0.93;;
75062;SDS011;63981;51.052;13.754;2023-04-03T09:39:31;3.80;;;0.77;;
75062;SDS011;63981;51.052;13.754;2023-04-03T09:42:05;3.13;;;0.80;;
75062;SDS011;63981;51.052;13.754;2023-04-03T09:44:44;2.08;;;0.80;;
75062;SDS011;63981;51.052;13.754;2023-04-03T09:47:24;2.88;;;1.13;;
75062;SDS011;63981;51.052;13.754;2023-04-03T09:52:40;3.60;;;0.80;;
75062;SDS011;63981;51.052;13.754;2023-04-03T09:55:10;1.75;;;0.80;;
75062;SDS011;63981;51.052;13.754;2023-04-03T09:57:40;4.63;;;1.10;;
75062;SDS011;63981;51.052;13.754;2023-04-03T10:00:18;2.67;;;1.00;;
75062;SDS011;63981;51.052;13.754;2023-04-03T10:02:49;2.95;;;0.82;;
75062;SDS011;63981;51.052;13.754;2023-04-03T10:05:51;2.13;;;0.73;;
75062;SDS011;63981;51.052;13.754;2023-04-03T10:10:39;1.65;;;0.73;;
75062;SDS011;63981;51.052;13.754;2023-04-03T10:13:07;1.65;;;0.90;;
75062;SDS011;63981;51.052;13.754;2023-04-03T10:15:42;2.17;;;0.82;;
75062;SDS011;63981;51.052;13.754;2023-04-03T10:18:18;2.70;;;0.82;;
75062;SDS011;63981;51.052;13.754;2023-04-03T10:20:52;3.45;;;0.90;;
75062;SDS011;63981;51.052;13.754;2023-04-03T10:26:47;2.53;;;0.75;;
75062;SDS011;63981;51.052;13.754;2023-04-03T10:31:53;1.85;;;0.75;;
75062;SDS011;63981;51.052;13.754;2023-04-03T10:34:42;3.22;;;0.57;;
75062;SDS011;63981;51.052;13.754;2023-04-03T10:37:13;2.90;;;0.88;;
75062;SDS011;63981;51.052;13.754;2023-04-03T10:42:13;2.33;;;0.50;;
75062;SDS011;63981;51.052;13.754;2023-04-03T10:53:10;1.65;;;0.65;;
75062;SDS011;63981;51.052;13.754;2023-04-03T10:56:07;1.45;;;0.50;;
75062;SDS011;63981;51.052;13.754;2023-04-03T10:58:50;2.53;;;0.60;;
75062;SDS011;63981;51.052;13.754;2023-04-03T11:01:21;2.53;;;0.50;;
75062;SDS011;63981;51.052;13.754;2023-04-03T11:03:56;2.05;;;0.70;;
75062;SDS011;63981;51.052;13.754;2023-04-03T11:06:24;1.45;;;0.60;;
75062;SDS011;63981;51.052;13.754;2023-04-03T11:08:55;1.33;;;0.43;;
75062;SDS011;63981;51.052;13.754;2023-04-03T11:11:29;1.80;;;0.70;;
75062;SDS011;63981;51.052;13.754;2023-04-03T11:14:01;1.40;;;0.55;;
75062;SDS011;63981;51.052;13.754;2023-04-03T11:16:36;2.25;;;0.60;;
75062;SDS011;63981;51.052;13.754;2023-04-03T11:19:11;1.50;;;0.65;;
75062;SDS011;63981;51.052;13.754;2023-04-03T11:21:57;2.10;;;0.98;;
75062;SDS011;63981;51.052;13.754;2023-04-03T11:24:31;1.95;;;0.75;;
75062;SDS011;63981;51.052;13.754;2023-04-03T11:26:58;3.45;;;0.70;;
75062;SDS011;63981;51.052;13.754;2023-04-03T11:29:30;3.30;;;0.80;;
75062;SDS011;63981;51.052;13.754;2023-04-03T11:32:18;1.48;;;0.70;;
75062;SDS011;63981;51.052;13.754;2023-04-03T11:34:56;2.90;;;0.65;;
75062;SDS011;63981;51.052;13.754;2023-04-03T11:42:50;4.38;;;0.60;;
75062;SDS011;63981;51.052;13.754;2023-04-03T12:05:54;3.85;;;0.77;;
75062;SDS011;63981;51.052;13.754;2023-04-03T12:08:52;1.40;;;0.50;;
75062;SDS011;63981;51.052;13.754;2023-04-03T12:16:21;1.65;;;0.70;;
75062;SDS011;63981;51.052;13.754;2023-04-03T12:24:24;4.25;;;1.85;;
75062;SDS011;63981;51.052;13.754;2023-04-03T12:27:20;2.95;;;0.57;;
75062;SDS011;63981;51.052;13.754;2023-04-03T12:29:50;2.90;;;0.50;;
75062;SDS011;63981;51.052;13.754;2023-04-03T12:32:37;0.82;;;0.50;;
75062;SDS011;63981;51.052;13.754;2023-04-03T12:43:50;3.85;;;0.60;;
75062;SDS011;63981;51.052;13.754;2023-04-03T12:46:42;3.08;;;0.75;;
75062;SDS011;63981;51.052;13.754;2023-04-03T12:51:54;4.03;;;0.70;;
75062;SDS011;63981;51.052;13.754;2023-04-03T12:54:22;1.52;;;0.52;;
75062;SDS011;63981;51.052;13.754;2023-04-03T12:57:08;2.97;;;0.80;;
75062;SDS011;63981;51.052;13.754;2023-04-03T12:59:44;2.97;;;1.02;;
75062;SDS011;63981;51.052;13.754;2023-04-03T13:02:20;1.50;;;0.70;;
75062;SDS011;63981;51.052;13.754;2023-04-03T13:04:55;1.75;;;0.73;;
75062;SDS011;63981;51.052;13.754;2023-04-03T13:07:27;2.40;;;0.70;;
75062;SDS011;63981;51.052;13.754;2023-04-03T13:10:02;1.55;;;0.80;;
75062;SDS011;63981;51.052;13.754;2023-04-03T13:12:35;3.55;;;0.98;;
75062;SDS011;63981;51.052;13.754;2023-04-03T13:15:24;1.50;;;0.70;;
75062;SDS011;63981;51.052;13.754;2023-04-03T13:17:53;3.05;;;0.90;;
75062;SDS011;63981;51.052;13.754;2023-04-03T13:20:27;1.40;;;0.80;;
75062;SDS011;63981;51.052;13.754;2023-04-03T13:22:56;1.73;;;0.55;;
75062;SDS011;63981;51.052;13.754;2023-04-03T13:25:23;1.95;;;0.70;;
75062;SDS011;63981;51.052;13.754;2023-04-03T13:27:51;3.03;;;0.73;;
75062;SDS011;63981;51.052;13.754;2023-04-03T13:30:30;2.40;;;0.60;;
75062;SDS011;63981;51.052;13.754;2023-04-03T13:32:59;2.67;;;0.90;;
75062;SDS011;63981;51.052;13.754;2023-04-03T13:35:38;1.88;;;0.57;;
75062;SDS011;63981;51.052;13.754;2023-04-03T13:40:49;3.90;;;1.10;;
75062;SDS011;63981;51.052;13.754;2023-04-03T13:43:24;2.83;;;0.77;;
75062;SDS011;63981;51.052;13.754;2023-04-03T13:48:23;2.95;;;0.70;;
75062;SDS011;63981;51.052;13.754;2023-04-03T13:50:58;2.58;;;0.68;;
75062;SDS011;63981;51.052;13.754;2023-04-03T13:53:26;1.58;;;0.85;;
75062;SDS011;63981;51.052;13.754;2023-04-03T13:56:04;3.67;;;0.95;;
75062;SDS011;63981;51.052;13.754;2023-04-03T13:58:35;2.65;;;1.00;;
75062;SDS011;63981;51.052;13.754;2023-04-03T14:01:19;1.98;;;0.80;;
75062;SDS011;63981;51.052;13.754;2023-04-03T14:03:51;3.25;;;0.70;;
75062;SDS011;63981;51.052;13.754;2023-04-03T14:06:25;2.55;;;0.70;;
75062;SDS011;63981;51.052;13.754;2023-04-03T14:08:51;1.13;;;0.50;;
75062;SDS011;63981;51.052;13.754;2023-04-03T14:11:35;3.33;;;0.70;;
75062;SDS011;63981;51.052;13.754;2023-04-03T14:14:02;3.05;;;0.68;;
75062;SDS011;63981;51.052;13.754;2023-04-03T14:16:37;3.08;;;0.60;;
75062;SDS011;63981;51.052;13.754;2023-04-03T14:19:06;3.45;;;0.70;;
75062;SDS011;63981;51.052;13.754;2023-04-03T14:21:31;2.20;;;0.88;;
75062;SDS011;63981;51.052;13.754;2023-04-03T14:23:57;2.83;;;0.65;;
75062;SDS011;63981;51.052;13.754;2023-04-03T14:26:23;2.97;;;0.65;;
75062;SDS011;63981;51.052;13.754;2023-04-03T14:28:52;2.75;;;0.70;;
75062;SDS011;63981;51.052;13.754;2023-04-03T14:31:19;1.77;;;0.57;;
75062;SDS011;63981;51.052;13.754;2023-04-03T14:33:46;2.50;;;0.95;;
75062;SDS011;63981;51.052;13.754;2023-04-03T14:36:13;1.20;;;0.50;;
75062;SDS011;63981;51.052;13.754;2023-04-03T14:41:07;1.30;;;0.68;;
75062;SDS011;63981;51.052;13.754;2023-04-03T14:43:37;1.65;;;1.08;;
75062;SDS011;63981;51.052;13.754;2023-04-03T14:46:04;1.92;;;0.80;;
75062;SDS011;63981;51.052;13.754;2023-04-03T14:48:36;3.45;;;1.02;;
75062;SDS011;63981;51.052;13.754;2023-04-03T14:51:02;2.25;;;0.70;;
75062;SDS011;63981;51.052;13.754;2023-04-03T14:53:28;1.65;;;0.57;;
75062;SDS011;63981;51.052;13.754;2023-04-03T14:55:54;5.18;;;1.55;;
75062;SDS011;63981;51.052;13.754;2023-04-03T14:58:20;2.10;;;0.80;;
75062;SDS011;63981;51.052;13.754;2023-04-03T15:00:46;3.65;;;0.93;;
75062;SDS011;63981;51.052;13.754;2023-04-03T15:03:16;2.67;;;0.65;;
75062;SDS011;63981;51.052;13.754;2023-04-03T15:05:44;3.67;;;0.65;;
75062;SDS011;63981;51.052;13.754;2023-04-03T15:08:21;2.03;;;0.65;;
75062;SDS011;63981;51.052;13.754;2023-04-03T15:10:49;1.52;;;0.70;;
75062;SDS011;63981;51.052;13.754;2023-04-03T15:13:18;1.52;;;0.75;;
75062;SDS011;63981;51.052;13.754;2023-04-03T15:15:45;3.58;;;0.82;;
75062;SDS011;63981;51.052;13.754;2023-04-03T15:18:14;1.85;;;0.60;;
75062;SDS011;63981;51.052;13.754;2023-04-03T15:20:43;2.00;;;0.60;;
75062;SDS011;63981;51.052;13.754;2023-04-03T15:23:10;1.98;;;0.60;;
75062;SDS011;63981;51.052;13.754;2023-04-03T15:25:38;1.77;;;0.60;;
75062;SDS011;63981;51.052;13.754;2023-04-03T15:28:04;2.30;;;0.60;;
75062;SDS011;63981;51.052;13.754;2023-04-03T15:30:31;2.08;;;0.70;;
75062;SDS011;63981;51.052;13.754;2023-04-03T15:32:57;1.77;;;0.70;;
75062;SDS011;63981;51.052;13.754;2023-04-03T15:35:22;1.65;;;0.60;;
75062;SDS011;63981;51.052;13.754;2023-04-03T15:37:48;2.53;;;0.80;;
75062;SDS011;63981;51.052;13.754;2023-04-03T15:40:14;1.63;;;0.55;;
75062;SDS011;63981;51.052;13.754;2023-04-03T15:42:40;2.05;;;0.55;;
75062;SDS011;63981;51.052;13.754;2023-04-03T15:45:07;1.92;;;0.70;;
75062;SDS011;63981;51.052;13.754;2023-04-03T15:47:33;2.75;;;0.90;;
75062;SDS011;63981;51.052;13.754;2023-04-03T15:49:59;3.67;;;0.90;;
75062;SDS011;63981;51.052;13.754;2023-04-03T15:52:25;2.97;;;0.60;;
75062;SDS011;63981;51.052;13.754;2023-04-03T15:54:50;1.30;;;0.43;;
75062;SDS011;63981;51.052;13.754;2023-04-03T15:57:16;2.17;;;0.77;;
75062;SDS011;63981;51.052;13.754;2023-04-03T15:59:42;3.00;;;0.80;;
75062;SDS011;63981;51.052;13.754;2023-04-03T16:02:08;2.50;;;0.60;;
75062;SDS011;63981;51.052;13.754;2023-04-03T16:04:38;2.63;;;0.80;;
75062;SDS011;63981;51.052;13.754;2023-04-03T16:07:03;2.78;;;0.68;;
75062;SDS011;63981;51.052;13.754;2023-04-03T16:09:30;3.58;;;0.70;;
75062;SDS011;63981;51.052;13.754;2023-04-03T16:11:58;1.60;;;0.63;;
75062;SDS011;63981;51.052;13.754;2023-04-03T16:14:23;2.65;;;0.63;;
75062;SDS011;63981;51.052;13.754;2023-04-03T16:16:49;1.60;;;0.60;;
75062;SDS011;63981;51.052;13.754;2023-04-03T16:19:15;5.25;;;0.70;;
75062;SDS011;63981;51.052;13.754;2023-04-03T16:21:41;1.85;;;0.63;;
75062;SDS011;63981;51.052;13.754;2023-04-03T16:24:07;3.85;;;0.60;;
75062;SDS011;63981;51.052;13.754;2023-04-03T16:26:34;2.28;;;0.75;;